Desert Springs, Nevada Weather observations

Data are for 10 minute period ending at time listed.
 Day   Time    Ave.   Ave.  Ave.  Vector   Max.   Total    Solar   
  of    of     Air    Rel.  Wind   Wind    Wind  Precip.   Rad.    
Year   Day     Temp.  Hum.  Speed  Dir.    Gust                    
2014   (PST)    F      %     mph   deg.    mph     in.     W/m2    
------------------------------------------------------------------- 
 293    2:00   56.0    35    3.0   231      6.0    3.93       0  
 293    3:00   52.0    41    6.0   279     10.0    3.93       0  
 293    4:00   51.0    43    6.0   279      9.0    3.93       0  
 293    5:00   53.0    38    2.0   255      9.0    3.93       0  
 293    6:00   53.0    37    2.0   241      6.0    3.93       0  
 293    7:00   54.0    35    4.0   241      7.0    3.93       5  
 293    8:00   60.0    29    1.0   284      4.0    3.93     153  
 293    9:00   59.0    31    3.0   313      7.0    3.93     339  
 293   10:00   64.0    26    5.0   149      8.0    3.93     500  
 293   11:00   67.0    24   10.0   196     17.0    3.93     650  
 293   12:00   67.0    24   14.0   259     22.0    3.93     707  
 293   13:00   67.0    24   20.0   259     30.0    3.93     722  
 293   14:00   67.0    25   19.0   259     32.0    3.93     669  
 293   15:00   66.0    27   20.0   259     31.0    3.93     506  
 293   16:00   64.0    29   20.0   246     32.0    3.93     460  
 293   17:00   61.0    33   15.0   243     29.0    3.93     237  
 293   18:00   57.0    37   18.0   201     37.0    3.93      27  
 293   19:00   56.0    35   24.0   216     44.0    3.93       0  
 293   20:00   52.0    46   22.0   282     53.0    3.93       0  
 293   21:00   47.0    67   21.0   276     41.0    3.93       0  
 293   22:00   44.0    76   18.0   283     31.0    3.93       0  
 293   23:00   43.0    73   16.0   285     22.0    3.93       0  
 294    0:00   42.0    58   13.0   261     27.0    3.93       0  
 294    1:00   41.0    62   12.0   249     19.0    3.93       0  

Return to Desert Springs, Nevada graphs page.


Western Regional Climate Center,wrcc@dri.edu